Lerna, IL (62440)

3:09 AM CDT on August 01, 2014 (GMT -0500)
Charleston Country Club (KILCHARL5) Elev 669 ft | 39.50 °N, 88.23 °W | Change Station

Current weather conditions updated 3 seconds ago

Mostly Cloudy
Mostly Cloudy
64.0 °F
Feels Like 64.0 °F
N
0.0
Wind Variable Wind from WNW
Gusts 0.0 mph

Today is forecast to be nearly the same temperature as yesterday. Afternoon showers and thunderstorms.

Today
High -- | Low -- °F
--% Chance of Precip.
Yesterday
High -- | Low -- °F
Precip. -- in
5:52 AM 8:05 PM
Waxing Crescent, 24% visible
Pressure 30.05 in
Visibility 10.0 miles
Clouds Mostly Cloudy 10000 ft
Dew Point 62 °F
Humidity 93%
Rainfall 0.00 in
Snow Depth Not available.
UV 0 out of 12
Pollen 6.90 out of 12
Air Quality Not available.
Flu Activity Not available.
METAR KMTO 010753Z AUTO 19003KT 10SM BKN100 19/17 A3007 RMK AO2 SLP176 T01940172

More Conditions Fewer Conditions

Pressure 30.05 in
Visibility 10.0 miles
Clouds Mostly Cloudy 10000 ft
Dew Point 62 °F
Humidity 93%
Rainfall 0.00 in
Snow Depth Not available.
UV 0 out of 12
Pollen 6.90 out of 12
Air Quality Not available.
Flu Activity Not available.
METAR KMTO 010753Z AUTO 19003KT 10SM BKN100 19/17 A3007 RMK AO2 SLP176 T01940172

More Conditions Fewer Conditions

10-Day Weather Forecast

Almanac

Astronomy

Aug. 01, 2014 Rise Set
Actual Time 5:52 AM CDT 8:05 PM CDT
Civil Twilight 5:22 AM CDT 8:35 PM CDT
Nautical Twilight 4:46 AM CDT 9:12 PM CDT
Astronomical Twilight 4:05 AM CDT 9:52 PM CDT
Moon 11:14 AM CDT 10:51 PM CDT
Length of Visible Light 15h 12m
Length of Day
14h 12m
Tomorrow will be 1m 57s shorter.
Waxing Crescent, 24% of the Moon is Illuminated
Today
Waxing Crescent
Aug 3
First Quarter
Aug 10
Full
Aug 17
Last Quarter
Aug 25
New

Today's Extremes

State Highs State Lows

Community

WunderPhotos

Upload Photos

1,739,522 photos uploaded!

Nearby

Snow Depth

Station Depth Elevation
No new snow has been reported.

Earthquake Activity

City Distance Mag. Time & Date
No recent earthquake activity has been reported nearby.
Minimum magnitude displayed is 2.5.

Coastal Water Temperatures

Place Temperature
No Stations Reporting

Nearby Weather Stations

Station Location Temp. Dew Point Humidity Wind Precip. Elev Updated Type
Charleston Country Club, Charleston, IL 64.0 °F 62 °F 93% WNW  at  0.0 mph 0.00 in / hr 669 ft 3:09 AM CDT Rapid Fire
Hindsboro, Hindsboro, IL 63.1 °F 62 °F 95% South  at  0.0 mph 0.00 in / hr 645 ft 3:00 AM CDT Normal
N. Teutopolis, Teutopolis, IL 60.5 °F 58 °F 91% ENE  at  0.0 mph 0.00 in / hr 587 ft 2:54 AM CDT Normal
Wolf Creek State Park, Findlay, IL 62.3 °F 60 °F 94% NNW  at  0.0 mph 0.00 in / hr 640 ft 3:09 AM CDT Rapid Fire
MesoWest KIRKVL , Sullivan, IL 67 °F - - North  at  - 0.00 in / hr 677 ft 2:10 AM CDT MADIS
MesoWest BURBON , Arthur, IL 57 °F - - North  at  - 0.00 in / hr 652 ft 1:55 AM CDT MADIS
Effingham, IL 65.0 °F 62 °F 90% WSW  at  0.0 mph 0.00 in / hr 600 ft 3:09 AM CDT Rapid Fire

Show More Stations Show Fewer Stations